Davis Sea — WDC2883 — position and weather

sailwx.info

Track history (hours):
 
Tides and Currents Weather Stations Pressure Air Temp Water Temp Dewpoint Dewpoint Depression Visibility Wind Speed Wind Dir Waves Ship Positions

Davis Sea

Owner: Kirby Offshore Marine, LLC, Staten Island, NY. More information available from US FCC via Universal Licensing System and Coast Guard Vessel Documentation Center.

Last reported at 2016-Jun-04 21:32 UTC. Time now 2016-Jun-26 15:33 UTC.
Position N 29°40' W 094°59'.
Warning: this ship's position is 21 days out of date.

Date/timePositionNaut miles runAvg speedWind from/ knotsBaromVisibWave heightAir tempDewpointWater temp
2016-Jun-04 21:32N 29°40' W 094°59'7 6.9
2016-Jun-04 20:29N 29°46' W 095°04'2 0.1
2016-Jun-04 00:31N 29°45' W 095°06'3 2.8
2016-Jun-03 23:30N 29°47' W 095°04'0 0.0
2016-Jun-03 22:33N 29°47' W 095°04'2 0.1
2016-Jun-02 21:19N 29°46' W 095°06'1 0.7
2016-Jun-02 20:08N 29°46' W 095°05'1 0.0
2016-May-31 22:19N 29°46' W 095°05'0 0.1
2016-May-31 21:33N 29°46' W 095°05'0 0.0
2016-May-31 20:10N 29°46' W 095°05'0 0.1
2016-May-31 19:30N 29°46' W 095°05'1 1.4
2016-May-31 18:32N 29°47' W 095°04'2 0.2
2016-May-31 12:08N 29°46' W 095°06'0 0.0
2016-May-30 00:31N 29°46' W 095°06'2 0.3
2016-May-29 19:03N 29°47' W 095°04'0 0.4
2016-May-29 18:24N 29°47' W 095°04'0 0.1
2016-May-29 16:24N 29°47' W 095°04'2 1.7
2016-May-29 15:22N 29°46' W 095°06'0 0.0
2016-May-29 14:34N 29°46' W 095°06'0 0.0
2016-May-29 13:08N 29°46' W 095°06'0 0.0
2016-May-29 12:33N 29°46' W 095°06'0 0.0
2016-May-29 11:33N 29°46' W 095°06'0 0.0
2016-May-29 10:33N 29°46' W 095°06'0 0.0
2016-May-29 09:33N 29°46' W 095°06'0 0.0
2016-May-29 08:33N 29°46' W 095°06'0 0.0
2016-May-29 07:32N 29°46' W 095°06'0 0.0
2016-May-29 06:33N 29°46' W 095°06'0 0.0
2016-May-29 05:20N 29°46' W 095°06'0 0.0
2016-May-29 03:07N 29°46' W 095°06'1 0.1
2016-May-28 16:32N 29°46' W 095°05'0 0.4
2016-May-28 15:28N 29°47' W 095°05'2 0.2
2016-May-28 02:34N 29°45' W 095°06'1 0.1
2016-May-27 21:33N 29°46' W 095°05'2 1.8
2016-May-27 20:33N 29°47' W 095°04'0 0.0
2016-May-27 19:33N 29°47' W 095°04'2 0.5
2016-May-27 16:18N 29°46' W 095°06'2 2.1
2016-May-27 15:31N 29°47' W 095°04'3 2.8
2016-May-27 14:33N 29°45' W 095°06'  
Track history (hours):
 
Tides and Currents Weather Stations Pressure Air Temp Water Temp Dewpoint Dewpoint Depression Visibility Wind Speed Wind Dir Waves Ship Positions

Davis Sea

Owner: Kirby Offshore Marine, LLC, Staten Island, NY. More information available from US FCC via Universal Licensing System and Coast Guard Vessel Documentation Center.

Last reported at 2016-Jun-04 21:32 UTC. Time now 2016-Jun-26 15:33 UTC.
Position N 29°40' W 094°59'.
Warning: this ship's position is 21 days out of date.

Date/timePositionNaut miles runAvg speedWind from/ knotsBaromVisibWave heightAir tempDewpointWater temp
2016-Jun-04 21:32N 29°40' W 094°59'7 6.9
2016-Jun-04 20:29N 29°46' W 095°04'2 0.1
2016-Jun-04 00:31N 29°45' W 095°06'3 2.8
2016-Jun-03 23:30N 29°47' W 095°04'0 0.0
2016-Jun-03 22:33N 29°47' W 095°04'2 0.1
2016-Jun-02 21:19N 29°46' W 095°06'1 0.7
2016-Jun-02 20:08N 29°46' W 095°05'1 0.0
2016-May-31 22:19N 29°46' W 095°05'0 0.1
2016-May-31 21:33N 29°46' W 095°05'0 0.0
2016-May-31 20:10N 29°46' W 095°05'0 0.1
2016-May-31 19:30N 29°46' W 095°05'1 1.4
2016-May-31 18:32N 29°47' W 095°04'2 0.2
2016-May-31 12:08N 29°46' W 095°06'0 0.0
2016-May-30 00:31N 29°46' W 095°06'2 0.3
2016-May-29 19:03N 29°47' W 095°04'0 0.4
2016-May-29 18:24N 29°47' W 095°04'0 0.1
2016-May-29 16:24N 29°47' W 095°04'2 1.7
2016-May-29 15:22N 29°46' W 095°06'0 0.0
2016-May-29 14:34N 29°46' W 095°06'0 0.0
2016-May-29 13:08N 29°46' W 095°06'0 0.0
2016-May-29 12:33N 29°46' W 095°06'0 0.0
2016-May-29 11:33N 29°46' W 095°06'0 0.0
2016-May-29 10:33N 29°46' W 095°06'0 0.0
2016-May-29 09:33N 29°46' W 095°06'0 0.0
2016-May-29 08:33N 29°46' W 095°06'0 0.0
2016-May-29 07:32N 29°46' W 095°06'0 0.0
2016-May-29 06:33N 29°46' W 095°06'0 0.0
2016-May-29 05:20N 29°46' W 095°06'0 0.0
2016-May-29 03:07N 29°46' W 095°06'1 0.1
2016-May-28 16:32N 29°46' W 095°05'0 0.4
2016-May-28 15:28N 29°47' W 095°05'2 0.2
2016-May-28 02:34N 29°45' W 095°06'1 0.1
2016-May-27 21:33N 29°46' W 095°05'2 1.8
2016-May-27 20:33N 29°47' W 095°04'0 0.0
2016-May-27 19:33N 29°47' W 095°04'2 0.5
2016-May-27 16:18N 29°46' W 095°06'2 2.1
2016-May-27 15:31N 29°47' W 095°04'3 2.8
2016-May-27 14:33N 29°45' W 095°06'  

Dump ship's entire track history